Southland, Texas
Current Conditions -  °F | °C
As of 11:53 PM on Saturday 22 Nov 2014 (Local Time) from KLBB Reporting Station
Clear Clear  
Wind Chill: 40°   Ceiling: Unl
Heat Index: 45°   Visibility: 10mi
Dew Point: 30°   Wind: 9mph
Humidity: 56%   Direction: 220°SW
Pressure: 29.68"   Gusts: NA
Location:  33.4457°N, 101.67°W
Report Text: KLBB 230553Z 22008KT 10SM CLR 07/M01 A2968 RMK AO2 SLP031 T00721011 10156 20044 401940044 58025
Loading
Personal Weather Stations






























Interactive Weather Map New forecast layout! Learn more

10-Day Weather Forecast

Advertisements
Track Severe Weather on mobile